Time;durP1;ratioP1;P1;durP2;ratioP2;P2;SDS_P1;SDS_P2;PMS_P1;PMS_P2;Temp;Humidity;BMP_temperature;BMP_pressure;BME280_temperature;BME280_humidity;BME280_pressure;Samples;Min_cycle;Max_cycle;Signal;HPM_P1;HPM_P2
2023/08/26 00:03:19;;;;;;;3.92;1.30;;;;;;;22.06;58.45;97282.69;10523847;28;20111;-67
2023/08/26 00:08:41;;;;;;;1.87;1.47;;;;;;;22.07;58.40;97282.00;10547658;28;20074;-67
2023/08/26 00:14:03;;;;;;;2.38;1.40;;;;;;;22.13;58.62;97284.25;10548218;28;20040;-67
2023/08/26 00:19:24;;;;;;;2.23;1.30;;;;;;;22.16;58.77;97275.03;10547440;28;20542;-67
2023/08/26 00:24:45;;;;;;;2.67;1.08;;;;;;;22.20;58.80;97268.72;10531971;28;20123;-67
2023/08/26 00:30:06;;;;;;;3.28;1.50;;;;;;;22.19;58.63;97264.41;10546735;28;20074;-68
2023/08/26 00:35:27;;;;;;;3.33;1.55;;;;;;;22.12;58.40;97254.38;10547392;28;20072;-67
2023/08/26 00:40:48;;;;;;;3.15;1.92;;;;;;;22.05;58.69;97261.34;10517028;28;20581;-67
2023/08/26 00:46:09;;;;;;;3.97;1.50;;;;;;;22.03;59.13;97249.97;10530928;28;20128;-67
2023/08/26 00:51:31;;;;;;;3.30;1.90;;;;;;;22.02;58.38;97246.41;10546398;28;20554;-67
2023/08/26 00:56:52;;;;;;;2.85;1.88;;;;;;;21.87;58.96;97256.09;10530374;28;20584;-67
2023/08/26 01:02:13;;;;;;;3.00;1.48;;;;;;;21.88;59.20;97255.41;10502371;28;20060;-67
2023/08/26 01:07:34;;;;;;;2.85;1.65;;;;;;;21.90;59.29;97246.19;10516349;28;20382;-67
2023/08/26 01:13:03;;;;;;;4.78;1.75;;;;;;;21.97;59.72;97250.56;10545159;28;20169;-67
2023/08/26 01:18:24;;;;;;;2.22;1.65;;;;;;;22.06;59.62;97245.75;10528023;28;20110;-67
2023/08/26 01:23:45;;;;;;;2.85;1.60;;;;;;;22.14;59.21;97234.50;10501351;28;20123;-67
2023/08/26 01:29:07;;;;;;;4.25;1.30;;;;;;;22.26;59.30;97234.69;10501226;28;20509;-67
2023/08/26 01:34:30;;;;;;;2.42;1.60;;;;;;;22.30;59.46;97237.59;10528781;28;20093;-67
2023/08/26 01:39:52;;;;;;;4.20;1.83;;;;;;;22.35;59.31;97241.91;10515586;28;20119;-67
2023/08/26 01:45:12;;;;;;;3.75;1.60;;;;;;;22.39;59.55;97236.28;10514643;28;20486;-67
2023/08/26 01:50:34;;;;;;;3.92;1.70;;;;;;;22.46;59.48;97220.00;10514585;28;20120;-67
2023/08/26 01:55:55;;;;;;;4.00;1.67;;;;;;;22.53;59.52;97210.16;10528065;28;20119;-67
2023/08/26 02:01:16;;;;;;;4.43;1.90;;;;;;;22.47;58.94;97213.63;10513897;28;20442;-67
2023/08/26 02:06:40;;;;;;;5.20;2.00;;;;;;;22.32;59.50;97206.34;10528109;28;20123;-68
2023/08/26 02:12:00;;;;;;;5.35;2.03;;;;;;;22.16;60.31;97204.00;10513864;28;20071;-67
2023/08/26 02:17:22;;;;;;;5.65;1.85;;;;;;;21.94;61.20;97195.84;10527242;28;20158;-67
2023/08/26 02:22:42;;;;;;;3.88;1.98;;;;;;;21.82;61.74;97190.00;10526549;28;20128;-67
2023/08/26 02:28:03;;;;;;;3.65;2.10;;;;;;;21.69;62.26;97185.53;10526478;28;20489;-67
2023/08/26 02:33:26;;;;;;;4.55;1.98;;;;;;;21.69;62.59;97211.81;10526372;28;20111;-67
2023/08/26 02:38:47;;;;;;;5.20;2.10;;;;;;;21.74;62.86;97198.41;10512325;28;20123;-67
2023/08/26 02:44:09;;;;;;;3.65;2.00;;;;;;;21.83;62.80;97211.31;10512578;28;20513;-67
2023/08/26 02:49:30;;;;;;;4.38;2.00;;;;;;;21.90;63.04;97210.00;10525844;28;20144;-67
2023/08/26 02:54:50;;;;;;;2.63;1.70;;;;;;;22.02;63.15;97220.13;10511989;28;20044;-68
2023/08/26 03:00:13;;;;;;;2.13;1.70;;;;;;;22.13;63.04;97221.72;10525421;28;20131;-67
2023/08/26 03:05:34;;;;;;;4.75;1.88;;;;;;;22.24;63.20;97226.13;10525544;28;20116;-68
2023/08/26 03:10:59;;;;;;;3.22;1.58;;;;;;;22.31;62.97;97207.03;10540360;28;20579;-67
2023/08/26 03:16:20;;;;;;;6.63;2.10;;;;;;;22.32;62.91;97214.16;10540346;28;20115;-67
2023/08/26 03:21:41;;;;;;;3.25;1.90;;;;;;;22.22;63.09;97211.88;10497193;28;20083;-67
2023/08/26 03:27:02;;;;;;;4.88;2.35;;;;;;;22.21;63.15;97216.16;10496899;28;20080;-67
2023/08/26 03:32:24;;;;;;;4.05;1.55;;;;;;;22.16;63.87;97217.47;10496773;28;20116;-68
2023/08/26 03:37:46;;;;;;;4.40;1.83;;;;;;;22.16;64.09;97221.03;10469142;28;20528;-67
2023/08/26 03:43:07;;;;;;;3.08;1.63;;;;;;;22.13;64.36;97216.03;10454286;28;20116;-67
2023/08/26 03:48:28;;;;;;;3.63;2.10;;;;;;;22.11;64.28;97218.84;10496205;28;20535;-67
2023/08/26 03:53:50;;;;;;;4.10;1.80;;;;;;;22.03;64.45;97227.22;10497523;28;20128;-67
2023/08/26 03:59:10;;;;;;;3.50;2.10;;;;;;;22.02;64.77;97228.63;10482511;28;20067;-67
2023/08/26 04:04:31;;;;;;;4.22;2.10;;;;;;;22.06;65.31;97249.28;10497674;28;20115;-67
2023/08/26 04:09:52;;;;;;;5.18;1.70;;;;;;;22.07;65.16;97269.94;10495996;28;20132;-67
2023/08/26 04:15:14;;;;;;;3.83;2.00;;;;;;;22.09;65.00;97264.28;10496016;28;20459;-66
2023/08/26 04:20:35;;;;;;;6.13;2.20;;;;;;;22.12;65.42;97286.38;10481947;28;20128;-68
2023/08/26 04:26:05;;;;;;;5.10;2.03;;;;;;;22.15;65.38;97284.25;10495562;28;20044;-67
2023/08/26 04:31:26;;;;;;;4.07;2.50;;;;;;;22.15;65.34;97284.25;10469478;28;20072;-67
2023/08/26 04:36:47;;;;;;;4.38;1.92;;;;;;;22.14;65.84;97291.34;10467907;28;20158;-67
2023/08/26 04:42:07;;;;;;;5.00;2.38;;;;;;;22.08;66.62;97300.50;10496422;28;20044;-67
2023/08/26 04:47:28;;;;;;;4.45;1.73;;;;;;;22.10;66.51;97314.75;10481196;28;20140;-67
2023/08/26 04:52:49;;;;;;;4.05;2.28;;;;;;;22.10;66.82;97339.59;10499341;28;20076;-67
2023/08/26 04:58:10;;;;;;;4.07;2.30;;;;;;;22.22;66.87;97348.34;10502736;28;20560;-67
2023/08/26 05:03:32;;;;;;;4.50;2.63;;;;;;;22.28;66.65;97360.50;10503192;28;20123;-67
2023/08/26 05:08:53;;;;;;;3.88;2.22;;;;;;;22.36;66.21;97359.91;10503189;28;20116;-67
2023/08/26 05:14:15;;;;;;;2.63;1.92;;;;;;;22.42;66.89;97365.69;10502188;28;20443;-67
2023/08/26 05:19:36;;;;;;;4.65;2.50;;;;;;;22.48;67.09;97367.91;10502007;28;20455;-67
2023/08/26 05:24:57;;;;;;;7.00;2.63;;;;;;;22.49;67.64;97409.88;10501852;28;20115;-67
2023/08/26 05:30:18;;;;;;;3.70;2.17;;;;;;;22.56;67.13;97419.22;10501470;28;20132;-67
2023/08/26 05:35:46;;;;;;;5.72;2.65;;;;;;;22.64;67.22;97458.44;10501273;28;20084;-67
2023/08/26 05:41:07;;;;;;;4.45;2.45;;;;;;;22.54;67.41;97473.94;10487151;28;20068;-68
2023/08/26 05:46:28;;;;;;;4.53;2.83;;;;;;;22.33;67.57;97482.81;10501931;28;20119;-67
2023/08/26 05:51:48;;;;;;;7.32;2.90;;;;;;;22.09;68.34;97485.94;10487345;28;20128;-67
2023/08/26 05:57:11;;;;;;;7.90;2.90;;;;;;;21.96;69.11;97477.19;10500560;28;20079;-67
2023/08/26 06:02:32;;;;;;;6.70;3.10;;;;;;;21.93;69.47;97492.03;10499651;28;20116;-67
2023/08/26 06:07:52;;;;;;;4.47;2.90;;;;;;;21.83;70.44;97509.63;10500022;28;20052;-67
2023/08/26 06:13:15;;;;;;;6.13;3.10;;;;;;;21.70;70.48;97522.13;10486230;28;20455;-67
2023/08/26 06:18:35;;;;;;;5.75;3.10;;;;;;;21.63;71.01;97515.59;10500032;28;20076;-67
2023/08/26 06:23:56;;;;;;;3.65;2.72;;;;;;;21.58;71.92;97504.84;10499384;28;20505;-67
2023/08/26 06:29:19;;;;;;;6.20;3.10;;;;;;;21.54;72.15;97501.91;10499063;28;20072;-68
2023/08/26 06:34:41;;;;;;;6.03;3.20;;;;;;;21.56;72.58;97522.56;10485294;28;20087;-67
2023/08/26 06:40:05;;;;;;;3.63;2.87;;;;;;;21.65;73.32;97512.81;10498655;28;20068;-67
2023/08/26 06:45:26;;;;;;;6.32;3.63;;;;;;;21.78;73.74;97496.72;10484765;28;20574;-67
2023/08/26 06:50:48;;;;;;;6.30;3.40;;;;;;;21.86;73.48;97522.44;10484449;28;20119;-67
2023/08/26 06:56:08;;;;;;;4.20;2.75;;;;;;;21.73;73.15;97515.09;10498962;28;20516;-67
2023/08/26 07:01:31;;;;;;;4.25;3.00;;;;;;;21.67;73.74;97515.69;10498647;28;20558;-67
2023/08/26 07:06:51;;;;;;;4.35;3.00;;;;;;;21.71;74.62;97512.94;10484149;28;20483;-67
2023/08/26 07:12:14;;;;;;;4.90;3.10;;;;;;;21.85;75.14;97517.44;10498385;28;20041;-67
2023/08/26 07:17:35;;;;;;;7.28;3.33;;;;;;;21.83;74.92;97515.28;10496473;28;20112;-67
2023/08/26 07:22:56;;;;;;;6.03;3.85;;;;;;;21.36;77.77;97493.75;10483305;28;20135;-67
2023/08/26 07:28:16;;;;;;;5.47;4.03;;;;;;;21.00;79.29;97482.28;10497187;28;20140;-67
2023/08/26 07:33:37;;;;;;;5.82;4.10;;;;;;;20.97;81.50;97456.00;10498763;28;20068;-67
2023/08/26 07:38:58;;;;;;;4.57;3.38;;;;;;;21.15;80.81;97452.84;10497835;28;20174;-67
2023/08/26 07:44:19;;;;;;;8.02;3.97;;;;;;;21.37;80.81;97461.81;10497773;28;20455;-67
2023/08/26 07:49:40;;;;;;;7.28;4.15;;;;;;;21.43;80.59;97459.13;10482545;28;20462;-67
2023/08/26 07:55:01;;;;;;;8.35;3.80;;;;;;;21.40;81.17;97508.00;10497533;28;20612;-67
2023/08/26 08:00:21;;;;;;;7.88;4.55;;;;;;;21.23;82.39;97487.06;10497067;28;20182;-67
2023/08/26 08:05:43;;;;;;;8.75;3.88;;;;;;;21.33;82.74;97478.78;10496671;28;20064;-67
2023/08/26 08:11:04;;;;;;;8.82;4.35;;;;;;;21.57;82.36;97494.88;10497124;28;20083;-67
2023/08/26 08:16:25;;;;;;;7.60;4.22;;;;;;;21.92;81.32;97470.72;10495887;28;20058;-67
2023/08/26 08:21:48;;;;;;;7.47;4.30;;;;;;;21.82;79.95;97487.56;10495708;28;20080;-67
2023/08/26 08:27:09;;;;;;;7.30;4.57;;;;;;;22.06;80.93;97490.13;10485304;28;20071;-67
2023/08/26 08:32:29;;;;;;;5.35;3.80;;;;;;;23.24;81.28;97492.78;10503902;28;20049;-67
2023/08/26 08:37:51;;;;;;;4.78;3.20;;;;;;;28.58;72.84;97480.25;10490025;28;20064;-68
2023/08/26 08:43:12;;;;;;;4.68;3.30;;;;;;;29.22;62.18;97481.81;10504345;28;20447;-68
2023/08/26 08:48:33;;;;;;;5.90;2.60;;;;;;;33.64;51.81;97479.16;10503003;28;20060;-71
2023/08/26 08:53:54;;;;;;;4.63;2.90;;;;;;;35.97;35.08;97464.22;10503125;28;20391;-70
2023/08/26 08:59:15;;;;;;;3.67;2.40;;;;;;;33.29;38.08;97453.34;10502894;28;20123;-70
2023/08/26 09:04:36;;;;;;;3.20;2.10;;;;;;;33.77;41.25;97448.38;10502973;28;20449;-70
2023/08/26 09:09:57;;;;;;;;;;;;;;;33.25;39.48;97445.50;10502960;28;20055;-70
2023/08/26 09:15:22;;;;;;;2.97;2.17;;;;;;;30.28;42.34;97428.00;10502434;28;20055;-70
2023/08/26 09:20:45;;;;;;;4.57;2.70;;;;;;;29.04;48.41;97425.25;10503006;28;20558;-68
2023/08/26 09:26:06;;;;;;;4.13;3.08;;;;;;;31.05;43.85;97418.75;10501807;28;20534;-70
2023/08/26 09:31:27;;;;;;;4.55;2.88;;;;;;;29.44;44.83;97431.28;10487646;28;20075;-67
2023/08/26 09:36:48;;;;;;;8.60;3.03;;;;;;;29.28;49.92;97435.06;10501594;28;20080;-68
2023/08/26 09:42:09;;;;;;;3.22;2.50;;;;;;;33.13;43.36;97434.28;10501019;28;20131;-69
2023/08/26 09:47:36;;;;;;;7.80;2.40;;;;;;;35.74;39.27;97431.69;10487357;28;20068;-70
2023/08/26 09:52:57;;;;;;;4.45;2.42;;;;;;;34.82;37.21;97426.25;10487280;28;20110;-70
2023/08/26 09:58:17;;;;;;;7.63;2.45;;;;;;;33.52;38.14;97436.09;10501516;28;20044;-69
2023/08/26 10:03:38;;;;;;;;;;;;;;;31.75;38.88;97443.31;10501242;28;20040;-68
2023/08/26 10:09:31;;;;;;;4.65;2.88;;;;;;;31.07;40.90;97443.94;10501132;28;19924;-70
2023/08/26 10:14:53;;;;;;;3.38;2.58;;;;;;;30.30;41.60;97451.69;10499567;28;20159;-68
2023/08/26 10:20:14;;;;;;;4.35;2.90;;;;;;;28.87;43.83;97449.84;10499867;28;20052;-67
2023/08/26 10:25:35;;;;;;;5.13;3.00;;;;;;;28.47;45.27;97453.75;10485437;28;20068;-67
2023/08/26 10:30:57;;;;;;;4.28;2.85;;;;;;;28.38;46.39;97458.16;10485282;28;20072;-67
2023/08/26 10:36:17;;;;;;;;;;;;;;;32.07;46.28;97451.31;10498870;28;20094;-69
2023/08/26 10:41:38;;;;;;;3.87;2.50;;;;;;;33.71;39.53;97451.47;10499680;28;19928;-70
2023/08/26 10:46:59;;;;;;;;;;;;;;;36.44;39.42;97450.06;10498830;28;20079;-70
2023/08/26 10:52:23;;;;;;;3.50;1.90;;;;;;;39.29;31.12;97436.94;10499155;28;20007;-70
2023/08/26 10:58:09;;;;;;;1.83;1.33;;;;;;;41.70;27.42;97433.41;10483892;28;20072;-71
2023/08/26 11:03:31;;;;;;;1.50;1.23;;;;;;;45.09;22.01;97412.00;10498301;28;20131;-71
2023/08/26 11:08:54;;;;;;;1.60;0.82;;;;;;;48.40;18.92;97423.44;10484126;28;20437;-71
2023/08/26 11:14:15;;;;;;;1.65;1.10;;;;;;;49.78;15.99;97410.44;10498481;28;20127;-72
2023/08/26 11:19:35;;;;;;;2.70;1.00;;;;;;;49.87;16.02;97413.31;10496856;28;20104;-72
2023/08/26 11:24:56;;;;;;;2.33;1.17;;;;;;;50.50;14.90;97395.22;10498096;28;20492;-70
2023/08/26 11:30:17;;;;;;;2.33;0.90;;;;;;;50.45;13.94;97379.41;10496817;28;20095;-72
2023/08/26 11:35:39;;;;;;;3.10;1.00;;;;;;;51.77;13.80;97374.69;10496971;28;20087;-72
2023/08/26 11:41:06;;;;;;;2.67;1.00;;;;;;;52.32;11.16;97368.78;10483074;28;20052;-71
2023/08/26 11:46:27;;;;;;;3.03;1.15;;;;;;;48.32;12.83;97356.81;10497557;28;20408;-71
2023/08/26 11:51:48;;;;;;;2.45;1.10;;;;;;;42.80;17.76;97347.75;10496481;28;20052;-70
2023/08/26 11:57:09;;;;;;;2.35;1.65;;;;;;;38.88;22.54;97342.75;10497831;28;20044;-71
2023/08/26 12:02:30;;;;;;;4.93;2.08;;;;;;;36.58;25.12;97328.13;10501055;28;20063;-71
2023/08/26 12:07:54;;;;;;;3.42;1.58;;;;;;;35.06;27.41;97319.63;10504596;28;20102;-70
2023/08/26 12:13:16;;;;;;;4.15;1.50;;;;;;;34.65;28.20;97339.16;10491489;28;20086;-68
2023/08/26 12:18:40;;;;;;;3.53;1.92;;;;;;;34.48;28.27;97332.53;10505169;28;20106;-68
2023/08/26 12:24:04;;;;;;;5.60;1.60;;;;;;;34.42;27.98;97318.94;10505033;28;20072;-68
2023/08/26 12:29:26;;;;;;;4.00;1.60;;;;;;;34.67;27.99;97324.59;10504621;28;20059;-70
2023/08/26 12:34:48;;;;;;;3.72;1.88;;;;;;;34.82;27.51;97342.19;10504492;28;20135;-68
2023/08/26 12:40:11;;;;;;;2.33;1.67;;;;;;;34.03;28.21;97342.66;10504026;28;20045;-70
2023/08/26 12:45:33;;;;;;;4.47;1.75;;;;;;;33.38;29.22;97330.19;10503171;28;20033;-68
2023/08/26 12:50:54;;;;;;;3.38;1.90;;;;;;;33.38;30.03;97324.41;10502846;28;20040;-68
2023/08/26 12:56:16;;;;;;;4.57;1.90;;;;;;;32.77;30.86;97331.19;10504284;28;20040;-67
2023/08/26 13:01:37;;;;;;;5.20;2.05;;;;;;;31.72;32.67;97323.66;10503575;28;20040;-67
2023/08/26 13:06:58;;;;;;;3.70;1.90;;;;;;;31.96;33.22;97316.66;10501986;28;20064;-68
2023/08/26 13:12:21;;;;;;;3.95;1.77;;;;;;;31.85;33.26;97319.06;10503242;28;20063;-67
2023/08/26 13:17:43;;;;;;;3.60;1.90;;;;;;;32.00;33.53;97313.66;10502938;28;20044;-68
2023/08/26 13:23:04;;;;;;;5.90;2.00;;;;;;;32.08;32.72;97311.28;10502707;28;20131;-68
2023/08/26 13:28:26;;;;;;;3.97;1.48;;;;;;;32.47;31.80;97313.91;10488520;28;20045;-67
2023/08/26 13:33:47;;;;;;;4.22;1.38;;;;;;;32.41;31.52;97324.91;10501369;28;20044;-68
2023/08/26 13:39:11;;;;;;;4.68;1.65;;;;;;;32.27;30.72;97311.53;10501443;28;20044;-68
2023/08/26 13:44:32;;;;;;;4.38;1.60;;;;;;;32.29;30.60;97307.88;10500847;28;20049;-68
2023/08/26 13:49:53;;;;;;;2.88;1.48;;;;;;;32.53;30.17;97307.28;10501042;28;20514;-67
2023/08/26 13:55:14;;;;;;;3.92;1.52;;;;;;;32.70;30.03;97288.00;10473071;28;20072;-67
2023/08/26 14:00:35;;;;;;;6.60;2.13;;;;;;;32.08;29.86;97287.47;10501478;28;20048;-68
2023/08/26 14:05:57;;;;;;;3.95;1.77;;;;;;;31.91;30.55;97290.06;10501101;28;20048;-68
2023/08/26 14:11:19;;;;;;;3.65;1.55;;;;;;;31.86;30.63;97288.75;10500996;28;20064;-68
2023/08/26 14:16:42;;;;;;;3.95;1.70;;;;;;;31.87;31.09;97284.41;10472735;28;20036;-68
2023/08/26 14:22:03;;;;;;;6.03;1.73;;;;;;;32.15;30.70;97286.56;10500289;28;20099;-68
2023/08/26 14:27:24;;;;;;;;;;;;;;;31.91;30.59;97287.16;10521465;28;20471;-67
2023/08/26 14:32:45;;;;;;;5.32;1.63;;;;;;;31.59;30.53;97300.16;10541979;28;19924;-67
2023/08/26 14:38:07;;;;;;;3.92;2.08;;;;;;;31.51;30.36;97295.28;10541726;28;20386;-68
2023/08/26 14:43:27;;;;;;;2.90;1.20;;;;;;;31.79;30.67;97275.94;10526457;28;20071;-68
2023/08/26 14:48:50;;;;;;;4.10;1.35;;;;;;;31.90;30.21;97280.69;10541203;28;20040;-67
2023/08/26 14:54:11;;;;;;;2.90;1.30;;;;;;;31.95;30.18;97281.31;10541011;28;20058;-67
2023/08/26 14:59:32;;;;;;;2.83;1.35;;;;;;;31.89;29.99;97278.56;10540817;28;20187;-68
2023/08/26 15:04:55;;;;;;;5.85;1.30;;;;;;;32.03;29.53;97277.50;10511723;28;20040;-67
2023/08/26 15:10:16;;;;;;;3.67;1.70;;;;;;;31.68;28.96;97286.28;10540499;28;20075;-67
2023/08/26 15:15:36;;;;;;;3.10;1.43;;;;;;;31.04;29.56;97279.00;10540254;28;20048;-67
2023/08/26 15:20:57;;;;;;;2.93;1.30;;;;;;;30.80;29.86;97276.63;10540689;28;20123;-68
2023/08/26 15:26:18;;;;;;;5.73;1.17;;;;;;;30.65;29.96;97273.31;10524860;28;20050;-67
2023/08/26 15:31:42;;;;;;;2.70;1.23;;;;;;;30.51;29.78;97272.88;10524756;28;20097;-68
2023/08/26 15:37:03;;;;;;;3.65;1.33;;;;;;;30.35;30.20;97276.75;10524760;28;20048;-67
2023/08/26 15:42:25;;;;;;;6.50;1.55;;;;;;;30.20;30.51;97271.25;10539493;28;20040;-67
2023/08/26 15:47:47;;;;;;;7.40;1.48;;;;;;;29.82;30.60;97278.34;10510903;28;20047;-67
2023/08/26 15:53:07;;;;;;;4.72;1.55;;;;;;;29.59;30.99;97277.28;10539365;28;20097;-68
2023/08/26 15:58:28;;;;;;;6.63;2.00;;;;;;;29.46;31.09;97290.38;10524213;28;20446;-67
2023/08/26 16:03:49;;;;;;;5.93;1.50;;;;;;;29.40;31.48;97288.31;10538819;28;20074;-68
2023/08/26 16:09:10;;;;;;;5.75;1.67;;;;;;;29.30;31.72;97292.03;10524132;28;20044;-68
2023/08/26 16:14:31;;;;;;;5.57;1.48;;;;;;;29.20;31.73;97282.84;10539295;28;20056;-68
2023/08/26 16:19:52;;;;;;;7.40;1.50;;;;;;;29.04;32.04;97283.75;10539245;28;20071;-67
2023/08/26 16:25:13;;;;;;;4.03;1.50;;;;;;;28.88;32.39;97275.34;10523784;28;20079;-67
2023/08/26 16:30:34;;;;;;;5.30;1.63;;;;;;;28.69;32.83;97261.19;10523716;28;20064;-67
2023/08/26 16:35:55;;;;;;;5.85;1.52;;;;;;;28.45;33.00;97229.88;10523901;28;20589;-67
2023/08/26 16:41:16;;;;;;;5.28;1.50;;;;;;;28.06;33.78;97204.47;10538336;28;20123;-66
2023/08/26 16:46:37;;;;;;;6.88;2.35;;;;;;;27.80;34.37;97199.00;10539553;28;20177;-67
2023/08/26 16:51:59;;;;;;;6.70;1.80;;;;;;;27.48;34.70;97186.31;10545974;28;20181;-67
2023/08/26 16:57:20;;;;;;;7.95;2.83;;;;;;;27.13;37.52;97188.75;10546380;28;20477;-68
2023/08/26 17:02:40;;;;;;;5.35;2.88;;;;;;;26.78;40.92;97193.94;10531122;28;20044;-67
2023/08/26 17:08:01;;;;;;;4.50;2.90;;;;;;;26.55;40.85;97224.81;10530270;28;20040;-67
2023/08/26 17:13:25;;;;;;;4.88;2.63;;;;;;;26.48;41.79;97240.56;10516176;28;20133;-67
2023/08/26 17:18:46;;;;;;;7.97;2.80;;;;;;;26.41;43.28;97245.59;10544686;28;20083;-67
2023/08/26 17:24:07;;;;;;;5.50;2.60;;;;;;;26.38;44.37;97238.47;10529641;28;20486;-67
2023/08/26 17:29:28;;;;;;;4.78;2.38;;;;;;;26.31;45.25;97224.84;10544641;28;20079;-67
2023/08/26 17:34:48;;;;;;;6.40;2.72;;;;;;;26.23;45.91;97222.72;10544322;28;20127;-67
2023/08/26 17:40:09;;;;;;;6.35;2.88;;;;;;;26.17;46.22;97206.31;10544326;28;20489;-67
2023/08/26 17:45:30;;;;;;;5.93;2.97;;;;;;;26.06;47.25;97238.50;10544250;28;20119;-67
2023/08/26 17:50:52;;;;;;;5.10;2.63;;;;;;;25.98;48.16;97255.69;10544369;28;20071;-67
2023/08/26 17:56:12;;;;;;;5.23;2.53;;;;;;;25.98;48.53;97261.41;10528231;28;20119;-67
2023/08/26 18:01:33;;;;;;;5.63;3.08;;;;;;;25.93;49.42;97278.53;10542242;28;20404;-67
2023/08/26 18:06:54;;;;;;;7.80;3.83;;;;;;;25.85;48.97;97272.81;10527574;28;20043;-66
2023/08/26 18:12:15;;;;;;;7.35;3.63;;;;;;;25.78;49.36;97291.41;10542997;28;20147;-67
2023/08/26 18:17:35;;;;;;;4.97;2.40;;;;;;;25.64;49.73;97317.09;10543101;28;20454;-67
2023/08/26 18:22:56;;;;;;;4.65;2.35;;;;;;;25.45;49.66;97330.63;10542238;28;20075;-67
2023/08/26 18:28:17;;;;;;;6.10;2.10;;;;;;;25.19;50.00;97327.69;10542224;28;20111;-67
2023/08/26 18:33:38;;;;;;;7.60;2.20;;;;;;;24.82;50.63;97316.84;10541705;28;20475;-68
2023/08/26 18:38:59;;;;;;;8.57;2.63;;;;;;;24.60;50.87;97291.03;10541764;28;20462;-67
2023/08/26 18:44:20;;;;;;;8.30;2.30;;;;;;;24.31;51.47;97290.16;10512322;28;20458;-67
2023/08/26 18:49:40;;;;;;;6.05;2.42;;;;;;;24.07;52.43;97292.81;10541251;28;20558;-67
2023/08/26 18:55:01;;;;;;;7.22;2.90;;;;;;;23.80;52.85;97323.25;10541228;28;20079;-67
2023/08/26 19:00:22;;;;;;;9.85;2.83;;;;;;;23.53;54.44;97317.28;10540885;28;20461;-67
2023/08/26 19:05:44;;;;;;;7.75;2.97;;;;;;;23.28;55.25;97341.22;10525623;28;20119;-67
2023/08/26 19:11:05;;;;;;;9.80;2.70;;;;;;;23.04;56.57;97356.59;10525219;28;20063;-68
2023/08/26 19:16:26;;;;;;;8.95;2.60;;;;;;;22.91;57.24;97349.31;10540556;28;20174;-67
2023/08/26 19:21:47;;;;;;;8.35;2.67;;;;;;;22.75;58.10;97369.72;10510821;28;20120;-67
2023/08/26 19:27:08;;;;;;;8.07;2.80;;;;;;;22.59;59.33;97372.34;10539932;28;20115;-67
2023/08/26 19:32:29;;;;;;;8.23;3.33;;;;;;;22.41;59.97;97363.53;10540017;28;20076;-67
2023/08/26 19:37:50;;;;;;;8.10;2.95;;;;;;;22.20;61.23;97374.59;10524561;28;20052;-67
2023/08/26 19:43:11;;;;;;;8.40;2.47;;;;;;;22.06;61.80;97377.19;10540080;28;20066;-67
2023/08/26 19:48:32;;;;;;;10.13;2.90;;;;;;;21.98;62.52;97396.94;10524424;28;20116;-67
2023/08/26 19:54:03;;;;;;;8.07;2.80;;;;;;;21.90;63.21;97376.91;10539438;28;20070;-68
2023/08/26 19:59:23;;;;;;;9.27;2.42;;;;;;;21.75;63.67;97375.94;10523988;28;20505;-67
2023/08/26 20:04:45;;;;;;;8.48;2.60;;;;;;;21.69;64.68;97395.72;10539108;28;20490;-67
2023/08/26 20:10:10;;;;;;;6.53;2.90;;;;;;;21.66;65.05;97397.06;10539268;28;20111;-67
2023/08/26 20:15:31;;;;;;;7.38;2.53;;;;;;;21.57;65.66;97393.38;10539166;28;20060;-67
2023/08/26 20:20:58;;;;;;;5.97;2.67;;;;;;;21.47;66.28;97406.66;10523612;28;20048;-67
2023/08/26 20:26:19;;;;;;;6.85;2.70;;;;;;;21.47;66.74;97415.88;10518021;28;20119;-66
2023/08/26 20:31:39;;;;;;;5.90;2.42;;;;;;;21.45;66.88;97415.84;10547117;28;20174;-67
2023/08/26 20:37:00;;;;;;;6.43;2.65;;;;;;;21.40;67.15;97420.72;10546453;28;20129;-67
2023/08/26 20:42:22;;;;;;;8.95;2.40;;;;;;;21.41;66.90;97413.63;10546602;28;20431;-66
2023/08/26 20:47:43;;;;;;;6.13;2.33;;;;;;;21.40;67.69;97412.19;10546480;28;20044;-67
2023/08/26 20:53:07;;;;;;;9.75;2.40;;;;;;;21.41;68.02;97419.31;10546436;28;20124;-67
2023/08/26 20:58:28;;;;;;;5.43;1.95;;;;;;;21.43;68.08;97401.63;10531371;28;20070;-66
2023/08/26 21:03:48;;;;;;;5.20;2.17;;;;;;;21.45;68.29;97420.81;10530331;28;20089;-67
2023/08/26 21:09:09;;;;;;;8.23;2.00;;;;;;;21.45;67.79;97429.34;10545793;28;20478;-67
2023/08/26 21:14:30;;;;;;;6.15;2.25;;;;;;;21.39;68.31;97432.75;10530317;28;20063;-67
2023/08/26 21:19:51;;;;;;;7.28;2.03;;;;;;;21.27;68.53;97446.72;10545294;28;20449;-67
2023/08/26 21:25:12;;;;;;;5.80;2.20;;;;;;;21.18;68.46;97450.75;10544810;28;20561;-67
2023/08/26 21:30:32;;;;;;;4.85;2.15;;;;;;;21.09;68.88;97461.19;10529366;28;20119;-67
2023/08/26 21:35:53;;;;;;;7.18;2.60;;;;;;;21.02;69.38;97465.28;10543066;28;20124;-67
2023/08/26 21:41:14;;;;;;;8.18;2.05;;;;;;;21.04;69.79;97457.56;10529396;28;20115;-66
2023/08/26 21:46:34;;;;;;;5.72;2.20;;;;;;;20.97;69.93;97458.81;10528788;28;20533;-67
2023/08/26 21:51:55;;;;;;;5.03;2.20;;;;;;;20.99;70.22;97452.47;10543924;28;20539;-67
2023/08/26 21:57:16;;;;;;;6.90;1.73;;;;;;;21.04;71.13;97451.16;10543284;28;20136;-66
2023/08/26 22:02:37;;;;;;;8.73;2.13;;;;;;;21.09;70.89;97439.22;10543255;28;20074;-67
2023/08/26 22:07:58;;;;;;;8.25;2.53;;;;;;;21.12;71.14;97440.69;10543095;28;20036;-67
2023/08/26 22:13:20;;;;;;;8.57;2.33;;;;;;;21.09;70.82;97430.00;10527801;28;20071;-67
2023/08/26 22:18:41;;;;;;;4.63;2.30;;;;;;;21.12;71.19;97420.09;10513460;28;20143;-66
2023/08/26 22:24:02;;;;;;;6.18;2.42;;;;;;;21.14;71.02;97428.69;10542363;28;20290;-67
2023/08/26 22:29:23;;;;;;;5.68;2.17;;;;;;;21.15;70.62;97418.78;10527349;28;20046;-67
2023/08/26 22:34:44;;;;;;;6.60;2.50;;;;;;;21.16;71.24;97425.88;10541989;28;20071;-67
2023/08/26 22:40:07;;;;;;;6.50;2.05;;;;;;;21.20;71.13;97411.78;10526818;28;20508;-67
2023/08/26 22:45:30;;;;;;;6.72;2.17;;;;;;;21.12;71.26;97414.44;10540980;28;20097;-67
2023/08/26 22:50:51;;;;;;;5.35;1.90;;;;;;;20.98;70.89;97412.03;10541955;28;20079;-67
2023/08/26 22:56:11;;;;;;;3.72;1.80;;;;;;;20.92;71.63;97402.66;10541117;28;20074;-67
2023/08/26 23:01:32;;;;;;;10.23;2.45;;;;;;;20.94;71.36;97394.19;10561388;22;20496;-67
2023/08/26 23:06:55;;;;;;;3.90;1.90;;;;;;;20.92;72.07;97386.34;10499277;28;20432;-67
2023/08/26 23:12:16;;;;;;;4.88;2.00;;;;;;;20.95;72.02;97387.16;10499113;28;20120;-66
2023/08/26 23:17:37;;;;;;;7.32;2.50;;;;;;;20.93;72.12;97398.41;10498611;28;20116;-67
2023/08/26 23:22:57;;;;;;;7.55;2.50;;;;;;;20.84;71.87;97389.03;10483313;28;20166;-67
2023/08/26 23:28:19;;;;;;;7.20;2.10;;;;;;;20.68;72.41;97380.91;10498377;28;20119;-67
2023/08/26 23:33:41;;;;;;;7.90;2.92;;;;;;;20.44;72.97;97388.84;10482934;28;20056;-67
2023/08/26 23:39:03;;;;;;;7.38;2.50;;;;;;;20.33;73.54;97372.97;10483538;28;20496;-66
2023/08/26 23:44:23;;;;;;;6.82;2.20;;;;;;;20.33;74.09;97387.13;10483138;28;20542;-66
2023/08/26 23:49:44;;;;;;;11.40;2.70;;;;;;;20.31;73.98;97399.16;10483167;28;20067;-67
2023/08/26 23:55:05;;;;;;;4.57;2.25;;;;;;;20.33;74.06;97370.13;10489777;28;20526;-67
